Terminal Aerodrome Forecast
Issued by NWS Louisville, KY

Home | Current Version | Previous Version | Text Only | Print | Product List | Glossary On
Versions: 1 2 3 4 5 6 7 8 9 10 11 12
000
FTUS43 KLMK 190522
TAFLEX
TAF
KLEX 190522Z 1906/2006 18005KT P6SM SKC
     FM191400 21008KT P6SM SKC
     FM192300 19004KT P6SM SKC=

USA.gov is the U.S. government's official web portal to all federal, state and local government web resources and services.